Erzurum Bolge, Turkey

12:09 PM +03 on January 24, 2017 (GMT +0300)
Erzurum | | Change Station

Elev 5768 ft 39.95 °N, 41.17 °E | Updated 19 minutes ago

Clear
Clear
-4 °F
Feels Like -4 °F
N
1
Wind Variable Wind from Variable

Today
High -- | Low -- °F
--% Chance of Precip.
Yesterday
High -- | Low -- °F
Precip. -- in
Pressure 30.33 in
Visibility 1.6 miles
Clouds
Dew Point -9 °F
Humidity 78%
Rainfall 0.00 in
Snow Depth Not available.
7:29 AM 5:24 PM
Waning Crescent, 13% visible
METAR LTCE 240850Z VRB01KT 2500 BR NSC M20/M23 Q1027 NOSIG RMK RWY08R VRB02KT RWY26R VRB02KT RWY08L VRB01KT
Pressure 30.33 in
Visibility 1.6 miles
Clouds
Dew Point -9 °F
Humidity 78%
Rainfall 0.00 in
Snow Depth Not available.
7:29 AM 5:24 PM
Waning Crescent, 13% visible
METAR LTCE 240850Z VRB01KT 2500 BR NSC M20/M23 Q1027 NOSIG RMK RWY08R VRB02KT RWY26R VRB02KT RWY08L VRB01KT

Get Your Daily Forecast Email!

Thanks for signing up!

Be on the lookout for a verification email in your inbox.

You'll start receiving the daily forecast at 8 AM.

×

10-Day Weather Forecast

×

Almanac

Astronomy

Jan. 24, 2017 Rise Set
Actual Time
Civil Twilight
Nautical Twilight
Astronomical Twilight
Moon
Length of Visible Light
Length of Day
Tomorrow will be .
, % of the Moon is Illuminated

Today's Extremes

Country Highs Country Lows

Community

WunderPhotos

Upload Photos

1,962,540 photos uploaded!

WunderBlog® & News

Nearby

Air Quality

  Air Quality AQ Index Pollutant
Not available.

Snow Depth

Station Depth Elevation

Earthquake Activity

City Distance Mag. Time & Date
Minimum magnitude displayed is 2.5.

Coastal Water Temperatures

Place Temperature

Stations

Nearby Weather Stations

Station Location Temp. Windchill Dew Point Humidity Wind Precip. Elev Updated Type